Time;durP1;ratioP1;P1;durP2;ratioP2;P2;SDS_P1;SDS_P2;PMS_P1;PMS_P2;Temp;Humidity;BMP_temperature;BMP_pressure;BME280_temperature;BME280_humidity;BME280_pressure;Samples;Min_cycle;Max_cycle;Signal;HPM_P1;HPM_P2
2023/08/04 00:02:20;;;;;;;5.80;2.30;;;19.30;99.90;;;;;;5136432;27;20019;-70
2023/08/04 00:04:46;;;;;;;8.23;2.38;;;19.20;99.90;;;;;;5136922;27;20054;-70
2023/08/04 00:07:12;;;;;;;4.78;1.80;;;19.20;99.90;;;;;;5136347;27;20424;-70
2023/08/04 00:09:37;;;;;;;4.57;1.77;;;19.20;99.90;;;;;;5136716;27;20034;-70
2023/08/04 00:12:03;;;;;;;3.90;2.00;;;19.20;99.90;;;;;;5118458;27;20027;-70
2023/08/04 00:14:29;;;;;;;4.53;1.98;;;19.20;99.90;;;;;;5136317;27;20023;-71
2023/08/04 00:16:55;;;;;;;6.88;2.10;;;19.10;99.90;;;;;;5133464;27;20485;-70
2023/08/04 00:19:20;;;;;;;4.00;2.08;;;19.10;99.90;;;;;;5117901;27;20099;-70
2023/08/04 00:21:46;;;;;;;4.32;2.15;;;19.10;99.90;;;;;;5136306;27;20027;-70
2023/08/04 00:24:11;;;;;;;5.93;2.08;;;19.10;99.90;;;;;;5136140;27;20035;-70
2023/08/04 00:26:37;;;;;;;3.42;1.98;;;19.10;99.90;;;;;;5136387;27;20401;-70
2023/08/04 00:29:03;;;;;;;3.58;1.85;;;19.20;99.90;;;;;;5136045;27;20111;-70
2023/08/04 00:31:28;;;;;;;6.38;2.63;;;19.20;99.90;;;;;;5135955;27;20030;-70
2023/08/04 00:33:55;;;;;;;4.93;2.30;;;19.20;99.90;;;;;;5136348;27;20127;-71
2023/08/04 00:36:20;;;;;;;3.25;2.03;;;19.20;99.90;;;;;;5135756;27;20106;-70
2023/08/04 00:38:46;;;;;;;6.68;2.40;;;19.20;99.90;;;;;;5136253;27;20106;-70
2023/08/04 00:41:11;;;;;;;3.05;1.92;;;19.10;99.90;;;;;;5135694;27;20027;-71
2023/08/04 00:43:37;;;;;;;3.95;2.00;;;19.10;99.90;;;;;;5135846;27;20087;-71
2023/08/04 00:46:03;;;;;;;6.28;1.83;;;19.10;99.90;;;;;;5117528;27;20023;-70
2023/08/04 00:48:28;;;;;;;7.50;1.70;;;19.10;99.90;;;;;;5135242;27;20122;-71
2023/08/04 00:50:54;;;;;;;6.63;1.83;;;19.10;99.90;;;;;;5135632;27;20019;-71
2023/08/04 00:53:20;;;;;;;8.10;2.70;;;19.10;99.90;;;;;;5135534;27;20099;-70
2023/08/04 00:55:46;;;;;;;5.65;1.90;;;19.10;99.90;;;;;;5135768;27;20026;-70
2023/08/04 00:58:12;;;;;;;3.63;1.77;;;19.00;99.90;;;;;;5135490;27;20112;-69
2023/08/04 01:00:39;;;;;;;3.97;1.60;;;19.10;99.90;;;;;;5135329;27;20019;-69
2023/08/04 01:03:05;;;;;;;5.07;1.75;;;19.00;99.90;;;;;;5136068;27;20019;-71
2023/08/04 01:05:44;;;;;;;4.50;1.90;;;19.00;99.90;;;;;;5135202;27;20126;-71
2023/08/04 01:08:19;;;;;;;3.55;2.00;;;19.00;99.90;;;;;;5135235;27;20019;-71
2023/08/04 01:11:12;;;;;;;7.68;2.05;;;18.90;99.90;;;;;;5135194;27;20031;-70
2023/08/04 01:13:40;;;;;;;3.33;1.63;;;18.90;99.90;;;;;;5135205;27;20065;-70
2023/08/04 01:16:07;;;;;;;3.33;1.63;;;18.90;99.90;;;;;;5135487;27;20031;-70
2023/08/04 01:18:33;;;;;;;4.68;1.70;;;18.90;99.90;;;;;;5136703;27;20055;-71
2023/08/04 01:21:05;;;;;;;4.63;1.77;;;18.80;99.90;;;;;;5136897;27;20031;-69
2023/08/04 01:23:32;;;;;;;3.58;1.35;;;18.80;99.90;;;;;;5136663;27;20115;-69
2023/08/04 01:26:00;;;;;;;3.78;1.55;;;18.80;99.90;;;;;;5136915;27;20035;-69
2023/08/04 01:28:27;;;;;;;3.05;1.27;;;18.80;99.90;;;;;;5136132;27;20031;-69
2023/08/04 01:30:55;;;;;;;2.50;1.40;;;18.80;99.90;;;;;;5135968;27;20118;-69
2023/08/04 01:33:22;;;;;;;3.03;1.40;;;18.80;99.90;;;;;;5134406;27;20023;-69
2023/08/04 01:35:47;;;;;;;5.90;1.73;;;18.80;99.90;;;;;;5135177;27;20057;-69
2023/08/04 01:38:13;;;;;;;3.08;1.60;;;18.80;99.90;;;;;;5134533;27;20023;-70
2023/08/04 01:40:39;;;;;;;3.55;1.50;;;18.80;99.90;;;;;;5134925;27;20081;-69
2023/08/04 01:43:05;;;;;;;4.07;1.60;;;18.80;99.90;;;;;;5134885;27;20027;-69
2023/08/04 01:45:30;;;;;;;2.55;1.30;;;18.80;99.90;;;;;;5134397;27;20030;-69
2023/08/04 01:47:56;;;;;;;4.10;1.65;;;18.80;99.90;;;;;;5134608;27;20098;-69
2023/08/04 01:50:22;;;;;;;4.15;1.40;;;18.80;99.90;;;;;;5115689;27;20047;-70
2023/08/04 01:52:47;;;;;;;3.20;1.30;;;18.80;99.90;;;;;;5134487;27;20075;-69
2023/08/04 01:55:14;;;;;;;2.60;1.42;;;18.80;99.90;;;;;;5133897;27;20480;-70
2023/08/04 01:57:39;;;;;;;6.93;1.83;;;18.80;99.90;;;;;;5134477;27;20410;-69
2023/08/04 02:00:06;;;;;;;5.45;1.70;;;18.80;99.90;;;;;;5116212;27;20031;-69
2023/08/04 02:02:32;;;;;;;4.15;1.08;;;18.80;99.90;;;;;;5133738;27;20375;-69
2023/08/04 02:04:57;;;;;;;2.90;1.40;;;18.80;99.90;;;;;;5116014;27;20023;-70
2023/08/04 02:07:23;;;;;;;3.22;1.15;;;18.80;99.90;;;;;;5134065;27;20023;-69
2023/08/04 02:09:48;;;;;;;2.00;1.50;;;18.80;99.90;;;;;;5134336;27;20035;-69
2023/08/04 02:12:14;;;;;;;2.88;1.45;;;18.80;99.90;;;;;;5133931;27;20034;-70
2023/08/04 02:14:40;;;;;;;5.45;1.70;;;18.80;99.90;;;;;;5134356;27;20019;-69
2023/08/04 02:17:05;;;;;;;1.70;1.20;;;18.80;99.90;;;;;;5134309;27;20027;-69
2023/08/04 02:19:31;;;;;;;3.83;1.30;;;18.80;99.90;;;;;;5133833;27;20023;-69
2023/08/04 02:21:57;;;;;;;5.88;1.50;;;18.80;99.90;;;;;;5134276;27;20387;-69
2023/08/04 02:24:22;;;;;;;2.22;1.38;;;18.80;99.90;;;;;;5113335;27;20027;-70
2023/08/04 02:26:48;;;;;;;6.28;1.92;;;18.80;99.90;;;;;;5134153;27;20602;-69
2023/08/04 02:29:13;;;;;;;2.13;1.40;;;18.80;99.90;;;;;;5133719;27;20062;-69
2023/08/04 02:31:41;;;;;;;3.70;1.60;;;18.90;99.90;;;;;;5115175;28;20027;-68
2023/08/04 02:34:07;;;;;;;5.38;1.50;;;18.80;99.90;;;;;;5134022;27;20043;-69
2023/08/04 02:36:33;;;;;;;3.35;1.77;;;18.90;99.90;;;;;;5133600;27;20066;-69
2023/08/04 02:38:58;;;;;;;4.80;1.50;;;18.90;99.90;;;;;;5133926;27;20063;-69
2023/08/04 02:41:24;;;;;;;3.17;1.40;;;18.90;99.90;;;;;;5133506;27;20054;-69
2023/08/04 02:43:49;;;;;;;5.53;1.80;;;18.90;99.90;;;;;;5115417;28;20030;-69
2023/08/04 02:46:15;;;;;;;2.40;1.27;;;18.90;99.90;;;;;;5133628;27;20106;-69
2023/08/04 02:48:41;;;;;;;2.33;1.30;;;18.90;99.90;;;;;;5133002;27;20055;-69
2023/08/04 02:51:09;;;;;;;2.90;1.40;;;18.90;99.90;;;;;;5133764;28;20031;-69
2023/08/04 02:53:36;;;;;;;3.83;1.30;;;19.00;99.90;;;;;;5133321;28;20023;-69
2023/08/04 02:56:14;;;;;;;3.97;1.30;;;19.00;99.90;;;;;;5134085;28;20073;-68
2023/08/04 02:58:41;;;;;;;2.40;1.40;;;19.00;99.90;;;;;;5133292;28;20034;-71
2023/08/04 03:01:06;;;;;;;4.60;1.65;;;19.00;99.90;;;;;;5133717;28;20054;-70
2023/08/04 03:03:32;;;;;;;4.75;1.60;;;19.00;99.90;;;;;;5132960;28;20062;-71
2023/08/04 03:05:59;;;;;;;6.82;1.60;;;18.90;99.90;;;;;;5133261;28;20023;-71
2023/08/04 03:08:25;;;;;;;4.20;1.45;;;18.90;99.90;;;;;;5132880;28;20063;-69
2023/08/04 03:10:51;;;;;;;3.33;1.58;;;18.90;99.90;;;;;;5133542;28;20463;-70
2023/08/04 03:13:16;;;;;;;4.90;2.10;;;18.80;99.90;;;;;;5133317;28;20031;-71
2023/08/04 03:15:42;;;;;;;5.22;1.52;;;18.80;99.90;;;;;;5132942;28;20023;-71
2023/08/04 03:18:08;;;;;;;2.92;1.58;;;18.80;99.90;;;;;;5133250;28;20025;-71
2023/08/04 03:20:38;;;;;;;3.45;1.55;;;18.80;99.90;;;;;;5132984;28;20027;-71
2023/08/04 03:23:04;;;;;;;3.63;1.80;;;18.80;99.90;;;;;;5133487;28;20117;-70
2023/08/04 03:25:30;;;;;;;5.07;1.80;;;18.70;99.90;;;;;;5133420;28;20026;-71
2023/08/04 03:27:56;;;;;;;4.80;1.50;;;18.70;99.90;;;;;;5133494;28;20348;-70
2023/08/04 03:30:21;;;;;;;4.13;2.10;;;18.70;99.90;;;;;;5114571;28;20035;-71
2023/08/04 03:32:47;;;;;;;3.53;1.80;;;18.60;99.90;;;;;;5133594;28;20027;-70
2023/08/04 03:35:12;;;;;;;4.90;1.80;;;18.60;99.90;;;;;;5133361;28;20063;-70
2023/08/04 03:37:39;;;;;;;2.63;1.75;;;18.60;99.90;;;;;;5114551;28;20028;-70
2023/08/04 03:40:06;;;;;;;5.03;2.15;;;18.60;99.90;;;;;;5132994;28;20035;-70
2023/08/04 03:42:32;;;;;;;5.28;1.88;;;18.50;99.90;;;;;;5132909;28;20027;-70
2023/08/04 03:44:58;;;;;;;4.18;2.10;;;18.50;99.90;;;;;;5133054;28;20025;-69
2023/08/04 03:47:23;;;;;;;4.18;2.13;;;18.50;99.90;;;;;;5114429;28;20034;-70
2023/08/04 03:49:49;;;;;;;3.22;1.95;;;18.50;99.90;;;;;;5132597;28;20043;-69
2023/08/04 03:52:14;;;;;;;5.90;2.17;;;18.50;99.90;;;;;;5132927;28;20035;-69
2023/08/04 03:54:40;;;;;;;4.60;2.20;;;18.40;99.90;;;;;;5114382;28;20023;-70
2023/08/04 03:57:06;;;;;;;4.95;2.38;;;18.50;99.90;;;;;;5134813;27;20023;-69
2023/08/04 03:59:32;;;;;;;5.10;2.08;;;18.40;99.90;;;;;;5136507;27;20038;-69
2023/08/04 04:01:58;;;;;;;5.00;2.38;;;18.40;99.90;;;;;;5136596;27;20023;-69
2023/08/04 04:04:23;;;;;;;4.97;2.38;;;18.40;99.90;;;;;;5136542;27;20050;-70
2023/08/04 04:06:49;;;;;;;4.63;2.30;;;18.40;99.90;;;;;;5136738;27;20501;-69
2023/08/04 04:09:15;;;;;;;3.83;2.22;;;18.40;99.90;;;;;;5136706;27;20035;-69
2023/08/04 04:11:40;;;;;;;6.38;2.28;;;18.30;99.90;;;;;;5136323;27;20027;-69
2023/08/04 04:14:09;;;;;;;5.45;2.10;;;18.30;99.90;;;;;;5118221;27;20419;-69
2023/08/04 04:16:35;;;;;;;4.97;1.80;;;18.30;99.90;;;;;;5135923;27;20031;-70
2023/08/04 04:19:00;;;;;;;7.55;2.08;;;18.30;99.90;;;;;;5120524;27;20030;-69
2023/08/04 04:21:26;;;;;;;5.03;1.98;;;18.30;99.90;;;;;;5115553;28;20464;-70
2023/08/04 04:23:52;;;;;;;4.88;2.10;;;18.30;99.90;;;;;;5115860;28;20019;-69
2023/08/04 04:26:17;;;;;;;6.28;2.20;;;18.30;99.90;;;;;;5097668;28;20166;-69
2023/08/04 04:28:43;;;;;;;5.65;2.38;;;18.30;99.90;;;;;;5115297;28;20080;-69
2023/08/04 04:31:08;;;;;;;4.30;1.92;;;18.30;99.90;;;;;;5097488;28;20028;-70
2023/08/04 04:33:34;;;;;;;6.53;2.60;;;18.30;99.90;;;;;;5115288;28;20376;-70
2023/08/04 04:36:00;;;;;;;5.28;2.38;;;18.30;99.90;;;;;;5115612;28;20103;-69
2023/08/04 04:38:28;;;;;;;6.22;2.67;;;18.30;99.90;;;;;;5115122;28;20038;-70
2023/08/04 04:41:01;;;;;;;3.83;2.45;;;18.30;99.90;;;;;;5115233;28;20030;-69
2023/08/04 04:43:28;;;;;;;6.95;3.03;;;18.40;99.90;;;;;;5114967;28;20099;-70
2023/08/04 04:45:54;;;;;;;7.38;3.05;;;18.30;99.90;;;;;;5115406;28;20016;-70
2023/08/04 04:48:21;;;;;;;7.47;2.60;;;18.30;99.90;;;;;;5115058;28;20027;-69
2023/08/04 04:50:47;;;;;;;6.90;2.65;;;18.30;99.90;;;;;;5114949;28;20067;-70
2023/08/04 04:53:13;;;;;;;6.55;2.70;;;18.40;99.90;;;;;;5115320;28;20086;-69
2023/08/04 04:55:39;;;;;;;6.75;2.58;;;18.40;99.90;;;;;;5114771;28;20019;-69
2023/08/04 04:58:04;;;;;;;3.90;2.30;;;18.40;99.90;;;;;;5115213;28;20027;-69
2023/08/04 05:00:33;;;;;;;8.32;2.33;;;18.40;99.90;;;;;;5114474;28;20023;-69
2023/08/04 05:02:59;;;;;;;4.20;2.00;;;18.40;99.90;;;;;;5115050;28;20478;-69
2023/08/04 05:05:24;;;;;;;3.55;2.28;;;18.40;99.90;;;;;;5115332;28;20024;-69
2023/08/04 05:07:50;;;;;;;6.35;2.67;;;18.40;99.90;;;;;;5114337;28;20027;-69
2023/08/04 05:10:15;;;;;;;5.88;2.85;;;18.40;99.90;;;;;;5114598;28;20101;-69
2023/08/04 05:12:41;;;;;;;6.15;2.15;;;18.40;99.90;;;;;;5115496;27;20103;-71
2023/08/04 05:15:07;;;;;;;5.57;2.17;;;18.40;99.90;;;;;;5134910;27;20102;-69
2023/08/04 05:17:35;;;;;;;3.05;1.70;;;18.40;99.90;;;;;;5134246;27;20019;-70
2023/08/04 05:20:01;;;;;;;4.50;2.20;;;18.40;99.90;;;;;;5135398;27;20023;-69
2023/08/04 05:22:27;;;;;;;5.63;2.35;;;18.40;99.90;;;;;;5135244;27;20068;-69
2023/08/04 05:24:52;;;;;;;5.28;2.13;;;18.40;99.90;;;;;;5116457;27;20027;-69
2023/08/04 05:27:18;;;;;;;3.50;2.00;;;18.40;99.90;;;;;;5135301;27;20054;-69
2023/08/04 05:29:44;;;;;;;5.03;2.55;;;18.40;99.90;;;;;;5134626;27;20038;-69
2023/08/04 05:32:09;;;;;;;3.40;2.15;;;18.40;99.90;;;;;;5135355;27;20059;-69
2023/08/04 05:34:35;;;;;;;4.03;2.53;;;18.40;99.90;;;;;;5134582;27;20024;-69
2023/08/04 05:37:00;;;;;;;6.32;2.80;;;18.30;99.90;;;;;;5116535;27;20046;-69
2023/08/04 05:39:26;;;;;;;3.60;2.05;;;18.30;99.90;;;;;;5134873;27;20038;-69
2023/08/04 05:41:51;;;;;;;9.18;2.13;;;18.30;99.90;;;;;;5134107;27;20027;-69
2023/08/04 05:44:17;;;;;;;4.82;1.92;;;18.30;99.90;;;;;;5134515;27;20103;-69
2023/08/04 05:46:43;;;;;;;3.35;1.73;;;18.30;99.90;;;;;;5134355;27;20049;-69
2023/08/04 05:49:08;;;;;;;4.53;2.33;;;18.30;99.90;;;;;;5134657;27;20047;-69
2023/08/04 05:51:34;;;;;;;4.43;2.10;;;18.30;99.90;;;;;;5134633;27;20027;-69
2023/08/04 05:53:59;;;;;;;6.65;2.00;;;18.30;99.90;;;;;;5134334;27;20390;-69
2023/08/04 05:56:25;;;;;;;4.43;2.80;;;18.30;99.90;;;;;;5134207;27;20030;-70
2023/08/04 05:58:51;;;;;;;6.03;2.03;;;18.40;99.90;;;;;;5134141;27;20031;-69
2023/08/04 06:01:16;;;;;;;4.30;1.92;;;18.40;99.90;;;;;;5116092;27;20030;-69
2023/08/04 06:03:42;;;;;;;6.65;2.20;;;18.40;99.90;;;;;;5133959;27;20023;-69
2023/08/04 06:06:08;;;;;;;3.35;1.83;;;18.40;99.90;;;;;;5134541;27;20038;-70
2023/08/04 06:08:33;;;;;;;5.20;2.13;;;18.40;99.90;;;;;;5115624;27;20476;-70
2023/08/04 06:10:59;;;;;;;4.03;2.47;;;18.40;99.90;;;;;;5133979;27;20126;-70
2023/08/04 06:13:25;;;;;;;3.55;2.30;;;18.40;99.90;;;;;;5134095;27;20030;-70
2023/08/04 06:15:50;;;;;;;5.18;2.28;;;18.40;99.90;;;;;;5130078;27;20030;-69
2023/08/04 06:18:17;;;;;;;4.88;2.22;;;18.40;99.90;;;;;;5132759;27;20080;-69
2023/08/04 06:20:43;;;;;;;6.75;2.13;;;18.40;99.90;;;;;;5114959;27;20027;-70
2023/08/04 06:23:08;;;;;;;5.28;2.67;;;18.40;99.90;;;;;;5134153;27;20382;-69
2023/08/04 06:25:34;;;;;;;4.00;2.42;;;18.40;99.90;;;;;;5133609;27;20016;-70
2023/08/04 06:27:59;;;;;;;3.30;2.53;;;18.40;99.90;;;;;;5134306;27;20081;-69
2023/08/04 06:30:25;;;;;;;5.55;2.67;;;18.40;99.90;;;;;;5133945;27;20039;-69
2023/08/04 06:32:51;;;;;;;6.60;2.35;;;18.40;99.90;;;;;;5133314;27;20027;-69
2023/08/04 06:35:17;;;;;;;3.70;2.55;;;18.40;99.90;;;;;;5133955;27;20027;-69
2023/08/04 06:37:42;;;;;;;6.45;3.00;;;18.40;99.90;;;;;;5133487;27;20045;-70
2023/08/04 06:40:09;;;;;;;5.85;2.83;;;18.40;99.90;;;;;;5115203;27;20068;-69
2023/08/04 06:42:35;;;;;;;6.70;2.47;;;18.40;99.90;;;;;;5133377;27;20478;-69
2023/08/04 06:45:01;;;;;;;7.15;2.72;;;18.40;99.90;;;;;;5133918;27;20027;-71
2023/08/04 06:47:27;;;;;;;4.00;2.60;;;18.50;99.90;;;;;;5133683;27;20091;-71
2023/08/04 06:49:53;;;;;;;6.57;2.88;;;18.50;99.90;;;;;;5133291;27;20134;-70
2023/08/04 06:52:18;;;;;;;5.82;2.78;;;18.50;99.90;;;;;;5133408;28;20027;-69
2023/08/04 06:54:44;;;;;;;7.22;2.72;;;18.60;99.90;;;;;;5114783;28;20058;-69
2023/08/04 06:57:10;;;;;;;5.55;3.00;;;18.70;99.90;;;;;;5133693;28;20122;-69
2023/08/04 06:59:35;;;;;;;5.57;2.60;;;18.80;99.90;;;;;;5133236;28;20460;-69
2023/08/04 07:02:01;;;;;;;5.03;2.42;;;19.00;99.90;;;;;;5133687;28;20027;-71
2023/08/04 07:04:27;;;;;;;5.07;2.30;;;19.10;99.90;;;;;;5133545;28;20106;-70
2023/08/04 07:06:54;;;;;;;5.90;2.83;;;19.10;99.90;;;;;;5133110;28;20518;-70
2023/08/04 07:09:20;;;;;;;4.38;1.90;;;19.30;99.90;;;;;;5133428;28;20035;-70
2023/08/04 07:11:45;;;;;;;5.53;2.08;;;19.50;99.90;;;;;;5133015;28;20450;-70
2023/08/04 07:14:11;;;;;;;4.38;2.28;;;20.00;99.90;;;;;;5133096;28;20023;-70
2023/08/04 07:16:36;;;;;;;5.63;1.88;;;21.00;99.90;;;;;;5132736;28;20379;-72
2023/08/04 07:19:02;;;;;;;4.75;2.00;;;21.40;99.90;;;;;;5133348;28;20054;-70
2023/08/04 07:21:28;;;;;;;2.45;1.52;;;22.00;99.90;;;;;;5133438;28;20025;-70
2023/08/04 07:23:53;;;;;;;5.43;1.73;;;22.50;99.90;;;;;;5132986;28;20106;-70
2023/08/04 07:26:19;;;;;;;2.50;1.65;;;22.70;97.30;;;;;;5133333;28;20027;-71
2023/08/04 07:28:45;;;;;;;7.28;2.05;;;22.90;96.70;;;;;;5132926;28;20082;-70
2023/08/04 07:31:11;;;;;;;5.57;2.28;;;23.00;95.00;;;;;;5133613;27;20023;-70
2023/08/04 07:33:37;;;;;;;4.38;1.80;;;22.90;94.20;;;;;;5137230;27;20030;-73
2023/08/04 07:36:04;;;;;;;2.97;1.77;;;22.70;93.30;;;;;;5137242;27;20023;-70
2023/08/04 07:38:31;;;;;;;2.80;1.75;;;22.60;94.10;;;;;;5137029;27;20046;-70
2023/08/04 07:40:57;;;;;;;6.10;1.70;;;22.40;93.90;;;;;;5136884;27;20428;-70
2023/08/04 07:43:24;;;;;;;4.35;1.30;;;22.30;93.40;;;;;;5137232;27;20023;-70
2023/08/04 07:45:50;;;;;;;5.72;1.70;;;22.20;93.60;;;;;;5136709;27;20027;-69
2023/08/04 07:48:15;;;;;;;5.35;1.60;;;22.00;93.60;;;;;;5136798;27;20032;-70
2023/08/04 07:50:46;;;;;;;3.63;1.80;;;21.90;94.00;;;;;;5136528;27;20531;-70
2023/08/04 07:53:12;;;;;;;;;;;21.80;94.50;;;;;;5137051;27;20359;-70
2023/08/04 07:55:39;;;;;;;2.22;1.38;;;21.60;94.40;;;;;;5118374;27;19909;-69
2023/08/04 07:58:08;;;;;;;4.15;1.60;;;21.60;94.60;;;;;;5136866;27;20409;-69
2023/08/04 08:00:35;;;;;;;2.30;1.40;;;21.50;95.00;;;;;;5136628;27;20062;-69
2023/08/04 08:03:01;;;;;;;3.67;1.75;;;21.40;95.50;;;;;;5117789;27;20076;-69
2023/08/04 08:05:26;;;;;;;4.35;1.77;;;21.40;95.80;;;;;;5136685;27;20027;-69
2023/08/04 08:07:52;;;;;;;2.85;1.38;;;21.30;96.10;;;;;;5117852;27;20019;-70
2023/08/04 08:10:18;;;;;;;3.03;1.67;;;21.30;96.70;;;;;;5136501;27;20110;-69
2023/08/04 08:12:44;;;;;;;3.30;1.55;;;21.30;97.10;;;;;;5136019;27;20423;-69
2023/08/04 08:15:09;;;;;;;3.55;1.65;;;21.20;96.90;;;;;;5136292;27;20172;-70
2023/08/04 08:17:37;;;;;;;3.28;1.88;;;21.20;97.30;;;;;;5136354;27;20023;-69
2023/08/04 08:20:03;;;;;;;3.58;2.03;;;21.30;97.60;;;;;;5135868;27;20545;-69
2023/08/04 08:22:28;;;;;;;6.38;3.97;;;21.20;97.90;;;;;;5133925;27;20118;-69
2023/08/04 08:24:54;;;;;;;4.60;1.50;;;21.30;98.10;;;;;;5117283;27;20022;-69
2023/08/04 08:27:20;;;;;;;3.13;1.38;;;21.30;97.70;;;;;;5115335;28;20355;-70
2023/08/04 08:29:46;;;;;;;2.75;1.33;;;21.30;97.30;;;;;;5114828;28;20035;-71
2023/08/04 08:32:11;;;;;;;3.55;1.50;;;21.30;96.90;;;;;;5115259;28;20059;-70
2023/08/04 08:34:38;;;;;;;2.38;1.10;;;21.30;97.10;;;;;;5115217;28;20023;-70
2023/08/04 08:37:07;;;;;;;1.85;1.30;;;21.30;97.60;;;;;;5115121;28;20145;-70
2023/08/04 08:39:33;;;;;;;2.60;1.27;;;21.20;97.60;;;;;;5115576;28;20031;-70
2023/08/04 08:41:58;;;;;;;1.63;1.10;;;21.20;97.50;;;;;;5114799;28;20523;-70
2023/08/04 08:44:24;;;;;;;3.13;1.35;;;21.20;97.40;;;;;;5115288;28;20016;-70
2023/08/04 08:46:50;;;;;;;3.35;1.30;;;21.20;97.60;;;;;;5096678;28;20027;-70
2023/08/04 08:49:16;;;;;;;5.07;2.20;;;21.20;97.70;;;;;;5115151;28;20047;-70
2023/08/04 08:51:48;;;;;;;3.78;1.40;;;21.20;98.10;;;;;;5115002;28;20031;-70
2023/08/04 08:54:14;;;;;;;4.03;1.40;;;21.20;98.00;;;;;;5115402;28;20020;-70
2023/08/04 08:56:40;;;;;;;3.03;1.73;;;21.20;98.10;;;;;;5114872;28;20028;-70
2023/08/04 08:59:07;;;;;;;4.10;1.50;;;21.20;98.30;;;;;;5114633;28;20028;-70
2023/08/04 09:01:34;;;;;;;4.68;1.35;;;21.10;98.50;;;;;;5114648;28;20452;-70
2023/08/04 09:04:00;;;;;;;2.60;1.17;;;21.10;98.60;;;;;;5114501;28;20400;-70
2023/08/04 09:06:26;;;;;;;4.43;1.50;;;21.00;99.20;;;;;;5114949;28;20024;-70
2023/08/04 09:08:53;;;;;;;2.78;1.30;;;21.00;99.30;;;;;;5114403;28;20027;-70
2023/08/04 09:11:19;;;;;;;5.47;3.20;;;21.00;99.60;;;;;;5114796;28;20456;-70
2023/08/04 09:13:45;;;;;;;3.33;1.50;;;20.90;99.70;;;;;;5118501;27;20026;-73
2023/08/04 09:16:15;;;;;;;3.10;1.50;;;20.90;99.70;;;;;;5134806;27;20026;-70
2023/08/04 09:18:42;;;;;;;4.07;1.60;;;20.90;99.90;;;;;;5134877;27;20050;-70
2023/08/04 09:21:08;;;;;;;4.13;1.58;;;20.90;99.90;;;;;;5134658;27;20057;-70
2023/08/04 09:23:40;;;;;;;4.93;2.17;;;20.90;99.90;;;;;;5134992;27;20023;-70
2023/08/04 09:26:06;;;;;;;2.88;1.60;;;20.90;99.90;;;;;;5134893;27;20030;-70
2023/08/04 09:28:32;;;;;;;2.88;1.40;;;20.90;99.90;;;;;;5134908;27;20031;-70
2023/08/04 09:31:09;;;;;;;5.70;2.03;;;20.90;99.90;;;;;;5134284;27;20037;-70
2023/08/04 09:33:38;;;;;;;1.52;1.20;;;20.90;99.90;;;;;;5134458;27;20439;-70
2023/08/04 09:36:08;;;;;;;4.75;1.83;;;20.90;99.90;;;;;;5134301;27;20362;-70
2023/08/04 09:38:35;;;;;;;4.72;1.58;;;20.90;99.90;;;;;;5134658;27;20034;-70
2023/08/04 09:41:08;;;;;;;2.45;1.50;;;21.00;99.90;;;;;;5134187;27;20038;-71
2023/08/04 09:43:34;;;;;;;3.03;1.67;;;21.00;99.90;;;;;;5134586;27;20491;-71
2023/08/04 09:46:04;;;;;;;6.63;1.83;;;21.00;99.90;;;;;;5134179;27;20107;-70
2023/08/04 09:48:30;;;;;;;3.45;1.65;;;21.10;99.90;;;;;;5134245;27;20062;-70
2023/08/04 09:51:12;;;;;;;4.50;1.70;;;21.10;99.90;;;;;;5133750;27;20079;-69
2023/08/04 09:53:49;;;;;;;4.65;1.50;;;21.10;99.90;;;;;;5134205;27;20472;-69
2023/08/04 09:56:17;;;;;;;6.97;2.25;;;21.20;99.90;;;;;;5134345;27;20098;-70
2023/08/04 09:58:44;;;;;;;3.47;1.85;;;21.20;99.90;;;;;;5134313;27;20031;-70
2023/08/04 10:01:09;;;;;;;3.92;2.05;;;21.20;99.90;;;;;;5133759;27;20038;-70
2023/08/04 10:03:41;;;;;;;6.38;1.98;;;21.30;99.90;;;;;;5134206;27;20027;-69
2023/08/04 10:06:07;;;;;;;3.20;1.77;;;21.30;99.90;;;;;;5133987;27;20062;-70
2023/08/04 10:08:39;;;;;;;6.82;2.20;;;21.30;99.90;;;;;;5134197;27;20490;-70
2023/08/04 10:11:07;;;;;;;4.68;2.05;;;21.40;99.90;;;;;;5133754;27;20424;-70
2023/08/04 10:13:35;;;;;;;6.35;2.25;;;21.40;99.90;;;;;;5134165;27;20028;-70
2023/08/04 10:16:07;;;;;;;3.05;1.70;;;21.40;99.90;;;;;;5133645;27;20028;-70
2023/08/04 10:18:48;;;;;;;5.20;1.65;;;21.30;99.90;;;;;;5134138;27;20035;-70
2023/08/04 10:21:15;;;;;;;5.75;2.42;;;21.30;99.90;;;;;;5130072;27;20039;-70
2023/08/04 10:23:41;;;;;;;5.68;1.95;;;21.30;99.90;;;;;;5133878;27;20027;-70
2023/08/04 10:26:11;;;;;;;6.00;2.00;;;21.40;99.90;;;;;;5115066;27;20092;-69
2023/08/04 10:29:07;;;;;;;4.80;2.40;;;21.40;99.90;;;;;;5133776;27;20030;-69
2023/08/04 10:31:55;;;;;;;4.63;2.03;;;21.40;99.90;;;;;;5133776;27;20062;-70
2023/08/04 10:34:28;;;;;;;3.47;1.70;;;21.40;99.90;;;;;;5134026;27;20024;-70
2023/08/04 10:36:54;;;;;;;4.20;1.70;;;21.40;99.90;;;;;;5133453;27;20024;-70
2023/08/04 10:39:39;;;;;;;2.88;1.70;;;21.40;99.90;;;;;;5133815;27;20122;-70
2023/08/04 10:42:29;;;;;;;3.05;2.00;;;21.40;99.90;;;;;;5132985;27;20050;-70
2023/08/04 10:45:05;;;;;;;3.13;1.90;;;21.40;99.90;;;;;;5133237;27;20054;-70
2023/08/04 10:47:45;;;;;;;5.03;1.80;;;21.40;99.90;;;;;;5115109;28;20030;-70
2023/08/04 10:50:12;;;;;;;6.43;2.13;;;21.40;99.90;;;;;;5132564;27;20054;-70
2023/08/04 10:52:40;;;;;;;3.55;1.75;;;21.40;99.90;;;;;;5133263;27;20028;-70
2023/08/04 10:55:07;;;;;;;7.45;2.10;;;21.40;99.90;;;;;;5132866;28;20413;-69
2023/08/04 10:57:34;;;;;;;5.45;1.92;;;21.30;99.90;;;;;;5133515;28;20038;-68
2023/08/04 11:00:07;;;;;;;2.33;1.70;;;21.30;99.90;;;;;;5133090;28;20038;-69
2023/08/04 11:02:35;;;;;;;5.30;2.60;;;21.30;99.90;;;;;;5133545;28;20026;-68
2023/08/04 11:05:03;;;;;;;4.63;2.00;;;21.30;99.90;;;;;;5133088;27;20023;-69
2023/08/04 11:07:29;;;;;;;3.30;1.90;;;21.30;99.90;;;;;;5137501;27;20380;-69
2023/08/04 11:09:54;;;;;;;4.00;2.17;;;21.30;99.90;;;;;;5136984;27;20039;-70
2023/08/04 11:12:21;;;;;;;4.10;2.17;;;21.30;99.90;;;;;;5137352;27;20030;-69
2023/08/04 11:14:47;;;;;;;4.45;1.77;;;21.30;99.90;;;;;;5137446;27;20382;-69
2023/08/04 11:17:14;;;;;;;2.75;1.85;;;21.30;99.90;;;;;;5137238;27;20027;-69
2023/08/04 11:19:43;;;;;;;3.90;2.25;;;21.30;99.90;;;;;;5137033;27;20031;-69
2023/08/04 11:22:14;;;;;;;4.55;2.50;;;21.30;99.90;;;;;;5136839;27;20034;-69
2023/08/04 11:24:40;;;;;;;4.57;2.65;;;21.30;99.90;;;;;;5137183;27;20027;-68
2023/08/04 11:27:08;;;;;;;4.55;2.05;;;21.20;99.90;;;;;;5137050;27;20027;-69
2023/08/04 11:29:34;;;;;;;5.50;2.00;;;21.20;99.90;;;;;;5137301;27;20031;-69
2023/08/04 11:32:00;;;;;;;4.45;2.20;;;21.20;99.90;;;;;;5136788;27;20084;-69
2023/08/04 11:34:28;;;;;;;4.45;2.10;;;21.20;99.90;;;;;;5137234;27;20114;-69
2023/08/04 11:36:53;;;;;;;4.80;2.22;;;21.30;99.90;;;;;;5136876;27;20435;-69
2023/08/04 11:39:19;;;;;;;3.88;1.98;;;21.30;99.90;;;;;;5136806;27;20062;-69
2023/08/04 11:41:45;;;;;;;6.68;2.47;;;21.30;99.90;;;;;;5137453;27;20033;-70
2023/08/04 11:44:13;;;;;;;3.38;2.17;;;21.30;99.90;;;;;;5136471;27;20409;-70
2023/08/04 11:46:39;;;;;;;4.45;2.00;;;21.40;99.90;;;;;;5136862;27;20031;-70
2023/08/04 11:49:06;;;;;;;5.82;2.40;;;21.40;99.90;;;;;;5136601;27;20051;-70
2023/08/04 11:51:32;;;;;;;7.30;2.15;;;21.40;99.90;;;;;;5137081;27;20088;-71
2023/08/04 11:53:58;;;;;;;3.78;2.05;;;21.40;99.90;;;;;;5136690;27;20420;-70
2023/08/04 11:56:24;;;;;;;4.68;2.20;;;21.40;99.90;;;;;;5136581;27;20027;-70
2023/08/04 11:58:54;;;;;;;4.65;2.38;;;21.40;99.90;;;;;;5136577;27;20479;-70
2023/08/04 12:01:33;;;;;;;4.20;2.38;;;21.40;99.90;;;;;;5136338;27;20023;-70
2023/08/04 12:03:58;;;;;;;4.65;2.63;;;21.40;99.90;;;;;;5136376;27;20478;-69
2023/08/04 12:06:26;;;;;;;4.45;2.30;;;21.30;99.90;;;;;;5136701;27;20027;-70
2023/08/04 12:08:54;;;;;;;6.78;2.60;;;21.30;99.90;;;;;;5136668;27;20026;-69
2023/08/04 12:11:22;;;;;;;5.00;2.53;;;21.20;99.90;;;;;;5136134;27;20031;-69
2023/08/04 12:13:48;;;;;;;4.28;2.30;;;21.20;99.90;;;;;;5123074;27;20446;-69
2023/08/04 12:16:15;;;;;;;6.57;2.58;;;21.20;99.90;;;;;;5115241;28;20425;-69
2023/08/04 12:18:41;;;;;;;5.28;2.90;;;21.20;99.90;;;;;;5115310;28;20024;-68
2023/08/04 12:21:10;;;;;;;5.55;2.95;;;21.20;99.90;;;;;;5115421;28;20031;-69
2023/08/04 12:23:38;;;;;;;4.28;3.00;;;21.20;99.90;;;;;;5115941;28;20481;-70
2023/08/04 12:26:04;;;;;;;6.10;3.22;;;21.20;99.90;;;;;;5115441;28;20080;-69
2023/08/04 12:28:30;;;;;;;6.25;3.13;;;21.20;99.90;;;;;;5115677;28;20039;-70
2023/08/04 12:30:55;;;;;;;7.60;3.20;;;21.20;99.90;;;;;;5115643;28;20398;-70
2023/08/04 12:33:21;;;;;;;9.75;4.03;;;21.20;99.90;;;;;;5115213;28;20032;-70
2023/08/04 12:35:47;;;;;;;5.78;3.67;;;21.20;99.90;;;;;;5115317;28;20038;-71
2023/08/04 12:38:12;;;;;;;11.20;5.78;;;21.20;99.90;;;;;;5114854;28;20027;-69
2023/08/04 12:40:38;;;;;;;13.00;5.15;;;21.20;99.90;;;;;;5115332;28;20031;-69
2023/08/04 12:43:04;;;;;;;6.10;3.80;;;21.20;99.90;;;;;;5114919;28;20028;-69
2023/08/04 12:45:29;;;;;;;10.35;4.50;;;21.20;99.90;;;;;;5096983;28;20034;-69
2023/08/04 12:47:55;;;;;;;6.00;4.20;;;21.20;99.90;;;;;;5115084;28;20043;-69